createdAt,value
2019-01-23T00:00:00.032Z,938.35
2019-01-23T00:01:00.009Z,938.39
2019-01-23T00:01:59.985Z,938.39
2019-01-23T00:02:59.964Z,938.42
2019-01-23T00:03:59.940Z,938.38
2019-01-23T00:04:59.916Z,938.39
2019-01-23T00:05:59.893Z,938.34
2019-01-23T00:06:59.879Z,938.38
2019-01-23T00:07:59.846Z,938.34
2019-01-23T00:08:59.821Z,938.34
2019-01-23T00:09:59.799Z,938.28
2019-01-23T00:10:59.775Z,938.32
2019-01-23T00:11:59.752Z,938.31
2019-01-23T00:12:59.729Z,938.29
2019-01-23T00:13:59.706Z,938.33
2019-01-23T00:14:59.682Z,938.24
2019-01-23T00:15:59.660Z,938.23
2019-01-23T00:16:59.635Z,938.2
2019-01-23T00:17:59.613Z,938.17
2019-01-23T00:18:59.588Z,938.17
2019-01-23T00:19:59.565Z,938.13
2019-01-23T00:20:59.541Z,938.12
2019-01-23T00:21:59.522Z,938.11
2019-01-23T00:22:59.494Z,938.06
2019-01-23T00:23:59.471Z,938.08
2019-01-23T00:24:59.450Z,938.14
2019-01-23T00:25:59.425Z,938.09
2019-01-23T00:26:59.402Z,938.08
2019-01-23T00:27:59.380Z,938.07
2019-01-23T00:28:59.356Z,938.07
2019-01-23T00:29:59.332Z,938.1
2019-01-23T00:30:59.311Z,938.07
2019-01-23T00:31:59.288Z,938.11
2019-01-23T00:32:59.265Z,938.14
2019-01-23T00:33:59.239Z,938.17
2019-01-23T00:34:59.217Z,938.14
2019-01-23T00:35:59.193Z,938.17
2019-01-23T00:36:59.169Z,938.19
2019-01-23T00:37:59.147Z,938.17
2019-01-23T00:38:59.126Z,938.23
2019-01-23T00:39:59.104Z,938.22
2019-01-23T00:40:59.077Z,938.16
2019-01-23T00:41:59.109Z,938.21
2019-01-23T00:42:59.086Z,938.26
2019-01-23T00:43:59.063Z,938.22
2019-01-23T00:44:59.040Z,938.22
2019-01-23T00:45:59.018Z,938.23
2019-01-23T00:46:58.992Z,938.2
2019-01-23T00:47:58.970Z,938.19
2019-01-23T00:48:58.947Z,938.17
2019-01-23T00:49:58.924Z,938.16
2019-01-23T00:50:58.900Z,938.22
2019-01-23T00:51:58.877Z,938.15
2019-01-23T00:52:58.854Z,938.19
2019-01-23T00:53:58.831Z,938.21
2019-01-23T00:54:58.807Z,938.24
2019-01-23T00:55:58.782Z,938.2
2019-01-23T00:56:58.761Z,938.19
2019-01-23T00:57:58.737Z,938.24
2019-01-23T00:58:58.713Z,938.24
2019-01-23T00:59:58.690Z,938.3
2019-01-23T01:00:58.667Z,938.31
2019-01-23T01:01:58.644Z,938.26
2019-01-23T01:02:58.621Z,938.26
2019-01-23T01:03:58.597Z,938.29
2019-01-23T01:04:58.575Z,938.34
2019-01-23T01:05:58.551Z,938.33
2019-01-23T01:06:58.528Z,938.32
2019-01-23T01:07:58.505Z,938.33
2019-01-23T01:08:58.481Z,938.31
2019-01-23T01:09:58.458Z,938.29
2019-01-23T01:10:58.433Z,938.26
2019-01-23T01:11:58.411Z,938.28
2019-01-23T01:12:58.390Z,938.24
2019-01-23T01:13:58.364Z,938.29
2019-01-23T01:14:58.340Z,938.31
2019-01-23T01:15:58.316Z,938.31
2019-01-23T01:16:58.293Z,938.32
2019-01-23T01:17:58.270Z,938.33
2019-01-23T01:18:58.247Z,938.29
2019-01-23T01:19:58.222Z,938.28
2019-01-23T01:20:58.200Z,938.26
2019-01-23T01:21:58.175Z,938.25
2019-01-23T01:22:58.153Z,938.23
2019-01-23T01:23:58.128Z,938.19
2019-01-23T01:24:58.104Z,938.15
2019-01-23T01:25:58.084Z,938.14
2019-01-23T01:26:58.061Z,938.15
2019-01-23T01:27:58.032Z,938.15
2019-01-23T01:28:58.010Z,938.12
2019-01-23T01:29:57.988Z,938.08
2019-01-23T01:30:57.963Z,938.08
2019-01-23T01:31:57.939Z,938.09
2019-01-23T01:32:57.916Z,938.08
2019-01-23T01:33:57.892Z,938.03
2019-01-23T01:34:57.870Z,938.07
2019-01-23T01:35:57.847Z,938.06
2019-01-23T01:36:57.822Z,937.97
2019-01-23T01:37:57.797Z,938.02
2019-01-23T01:38:57.774Z,937.91
2019-01-23T01:39:57.750Z,937.92
2019-01-23T01:40:57.726Z,937.86
2019-01-23T01:41:57.703Z,937.94
2019-01-23T01:42:57.678Z,937.89
2019-01-23T01:43:57.658Z,937.9
2019-01-23T01:44:57.630Z,937.91
2019-01-23T01:45:57.606Z,937.9
2019-01-23T01:46:57.582Z,937.89
2019-01-23T01:47:57.557Z,937.87
2019-01-23T01:48:57.534Z,937.84
2019-01-23T01:49:57.510Z,937.81
2019-01-23T01:50:57.486Z,937.76
2019-01-23T01:51:57.461Z,937.82
2019-01-23T01:52:57.438Z,937.78
2019-01-23T01:53:57.414Z,937.76
2019-01-23T01:54:57.391Z,937.81
2019-01-23T01:55:57.365Z,937.79
2019-01-23T01:56:57.341Z,937.77
2019-01-23T01:57:57.318Z,937.73
2019-01-23T01:59:02.673Z,937.68
2019-01-23T01:59:57.268Z,937.71
2019-01-23T02:00:57.244Z,937.65
2019-01-23T02:01:57.221Z,937.65
2019-01-23T02:02:57.197Z,937.67
2019-01-23T02:03:57.176Z,937.62
2019-01-23T02:04:57.147Z,937.6
2019-01-23T02:05:57.125Z,937.6
2019-01-23T02:06:57.099Z,937.59
2019-01-23T02:07:57.074Z,937.57
2019-01-23T02:08:57.051Z,937.55
2019-01-23T02:09:57.028Z,937.57
2019-01-23T02:10:57.002Z,937.57
2019-01-23T02:11:56.978Z,937.58
2019-01-23T02:12:56.953Z,937.54
2019-01-23T02:13:56.935Z,937.56
2019-01-23T02:14:56.905Z,937.58
2019-01-23T02:15:56.880Z,937.57
2019-01-23T02:16:56.856Z,937.52
2019-01-23T02:17:56.831Z,937.61
2019-01-23T02:18:56.808Z,937.56
2019-01-23T02:19:56.787Z,937.52
2019-01-23T02:20:56.759Z,937.53
2019-01-23T02:21:56.734Z,937.56
2019-01-23T02:22:56.710Z,937.53
2019-01-23T02:23:56.685Z,937.54
2019-01-23T02:24:56.663Z,937.46
2019-01-23T02:25:56.637Z,937.49
2019-01-23T02:26:56.613Z,937.5
2019-01-23T02:27:56.589Z,937.51
2019-01-23T02:28:56.564Z,937.45
2019-01-23T02:29:56.539Z,937.51
2019-01-23T02:30:56.515Z,937.51
2019-01-23T02:31:56.492Z,937.49
2019-01-23T02:32:56.466Z,937.47
2019-01-23T02:33:56.441Z,937.45
2019-01-23T02:34:56.418Z,937.48
2019-01-23T02:35:56.395Z,937.41
2019-01-23T02:36:56.369Z,937.4
2019-01-23T02:37:56.342Z,937.45
2019-01-23T02:38:56.324Z,937.4
2019-01-23T02:39:56.295Z,937.33
2019-01-23T02:40:56.273Z,937.43
2019-01-23T02:41:56.245Z,937.41
2019-01-23T02:42:56.222Z,937.42
2019-01-23T02:43:56.196Z,937.42
2019-01-23T02:44:56.172Z,937.42
2019-01-23T02:45:56.149Z,937.4
2019-01-23T02:46:56.122Z,937.36
2019-01-23T02:47:56.097Z,937.36
2019-01-23T02:48:56.072Z,937.36
2019-01-23T02:49:56.049Z,937.37
2019-01-23T02:50:56.025Z,937.31
2019-01-23T02:51:56.000Z,937.31
2019-01-23T02:52:55.974Z,937.34
2019-01-23T02:53:55.951Z,937.28
2019-01-23T02:54:55.925Z,937.25
2019-01-23T02:55:55.903Z,937.28
2019-01-23T02:56:55.877Z,937.24
2019-01-23T02:57:55.850Z,937.25
2019-01-23T02:58:55.825Z,937.2
2019-01-23T02:59:55.800Z,937.25
2019-01-23T03:00:55.776Z,937.19
2019-01-23T03:01:55.750Z,937.21
2019-01-23T03:02:55.727Z,937.2
2019-01-23T03:03:55.700Z,937.21
2019-01-23T03:04:55.691Z,937.16
2019-01-23T03:05:55.654Z,937.14
2019-01-23T03:06:55.626Z,937.12
2019-01-23T03:07:55.602Z,937.12
2019-01-23T03:08:55.577Z,937.13
2019-01-23T03:09:55.552Z,937.08
2019-01-23T03:10:55.528Z,937.1
2019-01-23T03:11:55.512Z,937.12
2019-01-23T03:12:55.479Z,937.08
2019-01-23T03:13:55.454Z,937.11
2019-01-23T03:14:55.429Z,937.06
2019-01-23T03:15:55.405Z,937.06
2019-01-23T03:16:55.381Z,937.03
2019-01-23T03:17:55.355Z,937.06
2019-01-23T03:18:55.330Z,937.03
2019-01-23T03:19:55.305Z,936.99
2019-01-23T03:20:55.286Z,937.01
2019-01-23T03:21:55.255Z,936.96
2019-01-23T03:22:55.231Z,936.95
2019-01-23T03:23:55.206Z,936.94
2019-01-23T03:24:55.179Z,936.9
2019-01-23T03:25:55.155Z,936.95
2019-01-23T03:26:55.130Z,936.92
2019-01-23T03:27:55.105Z,936.9
2019-01-23T03:28:55.081Z,936.89
2019-01-23T03:29:55.055Z,936.89
2019-01-23T03:30:55.032Z,936.9
2019-01-23T03:31:55.008Z,936.93
2019-01-23T03:32:54.982Z,936.93
2019-01-23T03:33:54.956Z,936.95
2019-01-23T03:34:54.930Z,936.93
2019-01-23T03:35:54.906Z,936.86
2019-01-23T03:36:54.881Z,936.86
2019-01-23T03:37:54.859Z,936.91
2019-01-23T03:38:54.838Z,936.84
2019-01-23T03:39:54.805Z,936.87
2019-01-23T03:40:54.782Z,936.9
2019-01-23T03:41:54.757Z,936.89
2019-01-23T03:42:54.733Z,936.9
2019-01-23T03:43:54.706Z,936.91
2019-01-23T03:44:54.683Z,936.84
2019-01-23T03:45:54.657Z,936.88
2019-01-23T03:46:54.631Z,936.84
2019-01-23T03:47:54.608Z,936.82
2019-01-23T03:48:54.582Z,936.87
2019-01-23T03:49:54.557Z,936.77
2019-01-23T03:50:54.532Z,936.81
2019-01-23T03:51:54.510Z,936.83
2019-01-23T03:52:54.483Z,936.8
2019-01-23T03:53:54.458Z,936.82
2019-01-23T03:54:54.434Z,936.82
2019-01-23T03:55:54.411Z,936.82
2019-01-23T03:56:54.383Z,936.82
2019-01-23T03:57:54.358Z,936.77
2019-01-23T03:58:54.333Z,936.82
2019-01-23T03:59:54.309Z,936.79
2019-01-23T04:00:54.286Z,936.79
2019-01-23T04:01:54.259Z,936.82
2019-01-23T04:02:54.235Z,936.79
2019-01-23T04:03:54.209Z,936.76
2019-01-23T04:04:54.185Z,936.75
2019-01-23T04:05:54.160Z,936.76
2019-01-23T04:06:54.137Z,936.78
2019-01-23T04:07:54.110Z,936.76
2019-01-23T04:08:54.086Z,936.73
2019-01-23T04:09:54.060Z,936.76
2019-01-23T04:10:54.037Z,936.76
2019-01-23T04:11:54.014Z,936.75
2019-01-23T04:12:53.987Z,936.72
2019-01-23T04:13:53.963Z,936.74
2019-01-23T04:14:53.937Z,936.74
2019-01-23T04:15:53.912Z,936.75
2019-01-23T04:16:53.888Z,936.71
2019-01-23T04:17:53.862Z,936.7
2019-01-23T04:18:53.837Z,936.7
2019-01-23T04:19:53.812Z,936.71
2019-01-23T04:20:53.788Z,936.67
2019-01-23T04:21:53.764Z,936.65
2019-01-23T04:22:53.737Z,936.63
2019-01-23T04:23:53.711Z,936.66
2019-01-23T04:24:53.689Z,936.63
2019-01-23T04:25:53.664Z,936.69
2019-01-23T04:26:53.637Z,936.63
2019-01-23T04:27:53.623Z,936.65
2019-01-23T04:28:53.589Z,936.69
2019-01-23T04:29:53.563Z,936.73
2019-01-23T04:30:53.541Z,936.68
2019-01-23T04:31:53.513Z,936.7
2019-01-23T04:32:53.489Z,936.68
2019-01-23T04:33:53.465Z,936.65
2019-01-23T04:34:53.440Z,936.65
2019-01-23T04:35:53.417Z,936.68
2019-01-23T04:36:53.390Z,936.66
2019-01-23T04:37:53.365Z,936.65
2019-01-23T04:38:53.340Z,936.65
2019-01-23T04:39:53.315Z,936.66
2019-01-23T04:40:53.290Z,936.59
2019-01-23T04:41:53.263Z,936.64
2019-01-23T04:42:53.240Z,936.69
2019-01-23T04:43:53.217Z,936.64
2019-01-23T04:44:53.191Z,936.61
2019-01-23T04:45:53.165Z,936.56
2019-01-23T04:46:53.141Z,936.63
2019-01-23T04:47:53.119Z,936.63
2019-01-23T04:48:53.091Z,936.62
2019-01-23T04:49:53.065Z,936.61
2019-01-23T04:50:53.042Z,936.6
2019-01-23T04:51:53.017Z,936.58
2019-01-23T04:52:52.992Z,936.61
2019-01-23T04:53:52.979Z,936.62
2019-01-23T04:54:52.942Z,936.62
2019-01-23T04:55:52.915Z,936.54
2019-01-23T04:56:52.899Z,936.52
2019-01-23T04:57:52.866Z,936.57
2019-01-23T04:58:52.843Z,936.51
2019-01-23T04:59:52.816Z,936.59
2019-01-23T05:00:52.791Z,936.48
2019-01-23T05:01:52.768Z,936.51
2019-01-23T05:02:52.741Z,936.51
2019-01-23T05:03:52.717Z,936.51
2019-01-23T05:04:52.692Z,936.44
2019-01-23T05:05:52.668Z,936.47
2019-01-23T05:06:52.642Z,936.44
2019-01-23T05:07:52.617Z,936.5
2019-01-23T05:08:52.593Z,936.48
2019-01-23T05:09:52.573Z,936.46
2019-01-23T05:10:52.542Z,936.44
2019-01-23T05:11:52.517Z,936.44
2019-01-23T05:12:52.493Z,936.4
2019-01-23T05:13:52.466Z,936.43
2019-01-23T05:14:52.451Z,936.44
2019-01-23T05:15:52.418Z,936.38
2019-01-23T05:16:52.392Z,936.45
2019-01-23T05:17:52.367Z,936.44
2019-01-23T05:18:52.343Z,936.47
2019-01-23T05:19:52.318Z,936.46
2019-01-23T05:20:52.293Z,936.41
2019-01-23T05:21:52.267Z,936.43
2019-01-23T05:22:52.242Z,936.44
2019-01-23T05:23:52.217Z,936.42
2019-01-23T05:24:52.191Z,936.42
2019-01-23T05:25:52.168Z,936.41
2019-01-23T05:26:52.142Z,936.4
2019-01-23T05:27:52.119Z,936.41
2019-01-23T05:28:52.093Z,936.42
2019-01-23T05:29:54.935Z,936.39
2019-01-23T05:30:52.043Z,936.42
2019-01-23T05:31:52.018Z,936.41
2019-01-23T05:32:51.995Z,936.39
2019-01-23T05:33:51.971Z,936.39
2019-01-23T05:34:51.944Z,936.43
2019-01-23T05:35:51.918Z,936.4
2019-01-23T05:36:51.893Z,936.39
2019-01-23T05:37:51.867Z,936.43
2019-01-23T05:38:51.843Z,936.4
2019-01-23T05:39:51.818Z,936.37
2019-01-23T05:40:51.796Z,936.4
2019-01-23T05:41:51.769Z,936.42
2019-01-23T05:42:51.744Z,936.46
2019-01-23T05:43:51.718Z,936.45
2019-01-23T05:44:51.695Z,936.4
2019-01-23T05:45:51.671Z,936.41
2019-01-23T05:46:51.644Z,936.38
2019-01-23T05:47:51.618Z,936.38
2019-01-23T05:48:51.595Z,936.38
2019-01-23T05:49:51.572Z,936.36
2019-01-23T05:50:51.544Z,936.32
2019-01-23T05:51:51.520Z,936.32
2019-01-23T05:52:51.498Z,936.33
2019-01-23T05:53:51.468Z,936.29
2019-01-23T05:54:51.443Z,936.26
2019-01-23T05:55:51.423Z,936.3
2019-01-23T05:56:51.396Z,936.25
2019-01-23T05:57:51.389Z,936.21
2019-01-23T05:58:51.343Z,936.23
2019-01-23T05:59:51.320Z,936.23
2019-01-23T06:00:51.294Z,936.21
2019-01-23T06:01:51.269Z,936.2
2019-01-23T06:02:51.245Z,936.25
2019-01-23T06:03:51.220Z,936.21
2019-01-23T06:04:51.194Z,936.22
2019-01-23T06:05:51.169Z,936.19
2019-01-23T06:06:51.149Z,936.21
2019-01-23T06:07:51.122Z,936.26
2019-01-23T06:08:51.094Z,936.24
2019-01-23T06:09:51.069Z,936.21
2019-01-23T06:10:51.044Z,936.2
2019-01-23T06:11:51.020Z,936.18
2019-01-23T06:12:50.994Z,936.21
2019-01-23T06:13:50.969Z,936.19
2019-01-23T06:14:50.944Z,936.16
2019-01-23T06:15:50.919Z,936.22
2019-01-23T06:16:50.894Z,936.19
2019-01-23T06:17:50.870Z,936.24
2019-01-23T06:18:50.845Z,936.21
2019-01-23T06:19:50.819Z,936.17
2019-01-23T06:20:50.796Z,936.17
2019-01-23T06:21:50.769Z,936.23
2019-01-23T06:22:50.745Z,936.19
2019-01-23T06:23:50.722Z,936.18
2019-01-23T06:24:50.696Z,936.22
2019-01-23T06:25:50.671Z,936.26
2019-01-23T06:26:50.647Z,936.28
2019-01-23T06:27:50.620Z,936.28
2019-01-23T06:28:50.596Z,936.3
2019-01-23T06:29:50.571Z,936.28
2019-01-23T06:30:50.545Z,936.31
2019-01-23T06:31:50.524Z,936.3
2019-01-23T06:32:50.496Z,936.35
2019-01-23T06:33:50.469Z,936.33
2019-01-23T06:34:50.449Z,936.35
2019-01-23T06:35:50.420Z,936.34
2019-01-23T06:36:50.396Z,936.37
2019-01-23T06:37:50.370Z,936.35
2019-01-23T06:38:50.344Z,936.36
2019-01-23T06:39:50.322Z,936.33
2019-01-23T06:40:50.296Z,936.38
2019-01-23T06:41:50.271Z,936.35
2019-01-23T06:42:50.246Z,936.32
2019-01-23T06:43:50.221Z,936.34
2019-01-23T06:44:50.195Z,936.37
2019-01-23T06:45:50.171Z,936.34
2019-01-23T06:46:50.147Z,936.31
2019-01-23T06:47:50.123Z,936.26
2019-01-23T06:48:50.096Z,936.27
2019-01-23T06:49:50.071Z,936.33
2019-01-23T06:50:50.046Z,936.26
2019-01-23T06:51:50.023Z,936.27
2019-01-23T06:52:49.997Z,936.26
2019-01-23T06:53:49.972Z,936.28
2019-01-23T06:54:49.949Z,936.27
2019-01-23T06:55:49.922Z,936.27
2019-01-23T06:56:49.897Z,936.27
2019-01-23T06:57:49.873Z,936.3
2019-01-23T06:58:49.847Z,936.31
2019-01-23T06:59:49.822Z,936.3
2019-01-23T07:00:49.798Z,936.34
2019-01-23T07:01:49.773Z,936.32
2019-01-23T07:02:49.748Z,936.38
2019-01-23T07:03:49.724Z,936.32
2019-01-23T07:04:49.698Z,936.35
2019-01-23T07:05:49.673Z,936.35
2019-01-23T07:06:49.649Z,936.35
2019-01-23T07:07:49.623Z,936.37
2019-01-23T07:08:49.598Z,936.33
2019-01-23T07:09:49.579Z,936.27
2019-01-23T07:10:49.549Z,936.28
2019-01-23T07:11:49.524Z,936.32
2019-01-23T07:12:49.500Z,936.28
2019-01-23T07:13:49.475Z,936.32
2019-01-23T07:14:49.450Z,936.33
2019-01-23T07:15:49.459Z,936.36
2019-01-23T07:16:49.406Z,936.37
2019-01-23T07:17:49.377Z,936.34
2019-01-23T07:18:49.351Z,936.33
2019-01-23T07:19:49.326Z,936.33
2019-01-23T07:20:49.302Z,936.34
2019-01-23T07:21:49.275Z,936.35
2019-01-23T07:22:49.251Z,936.3
2019-01-23T07:23:49.226Z,936.33
2019-01-23T07:24:49.202Z,936.32
2019-01-23T07:25:49.177Z,936.28
2019-01-23T07:26:49.154Z,936.29
2019-01-23T07:27:49.128Z,936.25
2019-01-23T07:28:49.413Z,936.25
2019-01-23T07:29:49.079Z,936.24
2019-01-23T07:30:49.054Z,936.29
2019-01-23T07:31:49.029Z,936.29
2019-01-23T07:32:49.005Z,936.28
2019-01-23T07:33:48.981Z,936.3
2019-01-23T07:34:48.956Z,936.31
2019-01-23T07:35:48.930Z,936.31
2019-01-23T07:36:48.907Z,936.32
2019-01-23T07:37:48.884Z,936.3
2019-01-23T07:38:48.857Z,936.28
2019-01-23T07:39:48.832Z,936.27
2019-01-23T07:40:48.807Z,936.29
2019-01-23T07:41:48.784Z,936.26
2019-01-23T07:42:48.759Z,936.27
2019-01-23T07:43:48.733Z,936.29
2019-01-23T07:44:48.711Z,936.29
2019-01-23T07:45:48.687Z,936.29
2019-01-23T07:46:48.665Z,936.29
2019-01-23T07:47:48.637Z,936.29
2019-01-23T07:48:48.612Z,936.26
2019-01-23T07:49:48.591Z,936.24
2019-01-23T07:50:48.565Z,936.26
2019-01-23T07:51:48.539Z,936.23
2019-01-23T07:52:48.516Z,936.22
2019-01-23T07:53:48.490Z,936.21
2019-01-23T07:54:48.466Z,936.2
2019-01-23T07:55:48.441Z,936.23
2019-01-23T07:56:48.420Z,936.26
2019-01-23T07:57:48.415Z,936.23
2019-01-23T07:58:48.370Z,936.24
2019-01-23T07:59:48.347Z,936.22
2019-01-23T08:00:48.323Z,936.26
2019-01-23T08:01:48.299Z,936.19
2019-01-23T08:02:48.277Z,936.18
2019-01-23T08:03:48.251Z,936.19
2019-01-23T08:04:48.226Z,936.17
2019-01-23T08:05:48.205Z,936.19
2019-01-23T08:06:48.178Z,936.21
2019-01-23T08:07:48.154Z,936.18
2019-01-23T08:08:48.131Z,936.21
2019-01-23T08:09:48.106Z,936.21
2019-01-23T08:10:48.084Z,936.19
2019-01-23T08:11:48.058Z,936.16
2019-01-23T08:12:48.034Z,936.18
2019-01-23T08:13:48.023Z,936.2
2019-01-23T08:14:47.986Z,936.21
2019-01-23T08:15:47.963Z,936.13
2019-01-23T08:16:47.938Z,936.15
2019-01-23T08:17:47.916Z,936.22
2019-01-23T08:18:47.891Z,936.22
2019-01-23T08:19:47.867Z,936.2
2019-01-23T08:20:47.844Z,936.2
2019-01-23T08:21:47.821Z,936.2
2019-01-23T08:22:47.797Z,936.23
2019-01-23T08:23:47.772Z,936.17
2019-01-23T08:24:47.750Z,936.2
2019-01-23T08:25:47.726Z,936.18
2019-01-23T08:26:47.702Z,936.19
2019-01-23T08:27:47.679Z,936.17
2019-01-23T08:28:47.656Z,936.13
2019-01-23T08:29:47.633Z,936.13
2019-01-23T08:30:47.609Z,936.12
2019-01-23T08:31:47.586Z,936.15
2019-01-23T08:32:47.561Z,936.09
2019-01-23T08:33:47.540Z,936.13
2019-01-23T08:34:47.514Z,936.06
2019-01-23T08:35:47.491Z,936.04
2019-01-23T08:36:47.469Z,936.07
2019-01-23T08:37:47.446Z,936.05
2019-01-23T08:38:47.421Z,936.09
2019-01-23T08:39:47.399Z,936.06
2019-01-23T08:40:47.376Z,936.06
2019-01-23T08:41:47.352Z,936.1
2019-01-23T08:42:47.328Z,936.08
2019-01-23T08:43:47.306Z,936.07
2019-01-23T08:44:47.283Z,936.11
2019-01-23T08:45:47.260Z,936.07
2019-01-23T08:46:47.237Z,936.07
2019-01-23T08:47:47.214Z,936.03
2019-01-23T08:48:47.191Z,935.99
2019-01-23T08:49:47.167Z,936.03
2019-01-23T08:50:47.157Z,936.02
2019-01-23T08:51:47.123Z,936.05
2019-01-23T08:52:47.099Z,936.08
2019-01-23T08:53:47.076Z,936.01
2019-01-23T08:54:47.052Z,936.06
2019-01-23T08:55:53.163Z,936.06
2019-01-23T08:56:47.007Z,936.03
2019-01-23T08:57:46.984Z,936.04
2019-01-23T08:58:46.962Z,936.01
2019-01-23T08:59:46.939Z,935.97
2019-01-23T09:00:46.915Z,935.99
2019-01-23T09:01:46.891Z,936.02
2019-01-23T09:02:46.870Z,935.96
2019-01-23T09:03:46.846Z,935.99
2019-01-23T09:04:46.824Z,935.9
2019-01-23T09:05:46.801Z,935.94
2019-01-23T09:06:46.781Z,935.98
2019-01-23T09:07:46.755Z,935.97
2019-01-23T09:08:46.732Z,936.02
2019-01-23T09:09:46.710Z,936.03
2019-01-23T09:10:46.687Z,936.03
2019-01-23T09:11:46.664Z,935.99
2019-01-23T09:12:46.642Z,936.08
2019-01-23T09:13:46.619Z,936.05
2019-01-23T09:14:46.596Z,936.03
2019-01-23T09:15:46.573Z,936.07
2019-01-23T09:16:46.550Z,936.05
2019-01-23T09:17:46.528Z,936.07
2019-01-23T09:18:46.505Z,936.04
2019-01-23T09:19:46.482Z,936.09
2019-01-23T09:20:46.459Z,936.05
2019-01-23T09:21:46.440Z,936.02
2019-01-23T09:22:46.418Z,936.01
2019-01-23T09:23:46.395Z,936.02
2019-01-23T09:24:46.368Z,936
2019-01-23T09:25:49.764Z,935.97
2019-01-23T09:26:46.322Z,935.98
2019-01-23T09:27:46.301Z,935.98
2019-01-23T09:28:46.278Z,936.03
2019-01-23T09:29:46.256Z,936.03
2019-01-23T09:30:52.399Z,936.07
2019-01-23T09:31:46.210Z,936.03
2019-01-23T09:32:46.188Z,936.02
2019-01-23T09:33:46.170Z,936.03
2019-01-23T09:34:46.145Z,935.99
2019-01-23T09:35:46.122Z,935.99
2019-01-23T09:36:46.099Z,936
2019-01-23T09:37:46.075Z,935.95
2019-01-23T09:38:46.054Z,935.96
2019-01-23T09:39:46.032Z,936.03
2019-01-23T09:40:46.009Z,936
2019-01-23T09:41:45.986Z,935.99
2019-01-23T09:42:45.968Z,935.98
2019-01-23T09:43:45.943Z,935.99
2019-01-23T09:44:45.920Z,935.97
2019-01-23T09:45:45.898Z,935.93
2019-01-23T09:46:45.874Z,935.98
2019-01-23T09:47:45.852Z,935.96
2019-01-23T09:48:45.831Z,935.91
2019-01-23T09:49:45.808Z,935.97
2019-01-23T09:50:45.789Z,935.97
2019-01-23T09:51:45.763Z,935.96
2019-01-23T09:52:45.741Z,935.93
2019-01-23T09:53:45.719Z,935.94
2019-01-23T09:54:45.696Z,935.95
2019-01-23T09:55:45.674Z,935.96
2019-01-23T09:56:45.652Z,935.94
2019-01-23T09:57:45.629Z,935.98
2019-01-23T09:58:45.607Z,935.96
2019-01-23T09:59:45.585Z,935.96
2019-01-23T10:00:45.563Z,935.97
2019-01-23T10:01:45.541Z,935.98
2019-01-23T10:02:45.517Z,936.03
2019-01-23T10:03:45.496Z,936.01
2019-01-23T10:04:45.474Z,936.06
2019-01-23T10:05:45.451Z,935.99
2019-01-23T10:06:45.429Z,936.02
2019-01-23T10:07:45.410Z,936.02
2019-01-23T10:08:45.384Z,935.99
2019-01-23T10:09:45.363Z,936.01
2019-01-23T10:10:45.340Z,935.96
2019-01-23T10:11:45.319Z,935.99
2019-01-23T10:12:45.296Z,935.99
2019-01-23T10:13:45.273Z,935.98
2019-01-23T10:14:45.253Z,936.03
2019-01-23T10:15:45.230Z,935.99
2019-01-23T10:16:45.210Z,936.05
2019-01-23T10:17:45.186Z,935.98
2019-01-23T10:18:45.163Z,936
2019-01-23T10:19:45.141Z,935.97
2019-01-23T10:20:45.120Z,935.92
2019-01-23T10:21:45.097Z,935.92
2019-01-23T10:22:45.076Z,935.93
2019-01-23T10:23:45.057Z,935.97
2019-01-23T10:24:45.032Z,935.96
2019-01-23T10:25:45.011Z,935.99
2019-01-23T10:26:44.992Z,935.98
2019-01-23T10:27:44.970Z,935.96
2019-01-23T10:28:44.946Z,936.07
2019-01-23T10:29:44.924Z,936.05
2019-01-23T10:30:44.903Z,936.05
2019-01-23T10:31:44.880Z,936.03
2019-01-23T10:32:44.859Z,935.98
2019-01-23T10:33:44.839Z,936.02
2019-01-23T10:34:44.819Z,936
2019-01-23T10:35:44.796Z,935.99
2019-01-23T10:36:44.773Z,936
2019-01-23T10:37:44.753Z,936.02
2019-01-23T10:38:44.731Z,936
2019-01-23T10:39:44.710Z,936.02
2019-01-23T10:40:44.690Z,935.97
2019-01-23T10:41:44.668Z,936.01
2019-01-23T10:42:44.652Z,935.99
2019-01-23T10:43:44.626Z,936.02
2019-01-23T10:44:44.606Z,936.01
2019-01-23T10:45:44.583Z,935.98
2019-01-23T10:46:44.561Z,936
2019-01-23T10:47:44.540Z,935.99
2019-01-23T10:48:44.526Z,935.96
2019-01-23T10:49:44.497Z,935.95
2019-01-23T10:50:44.478Z,935.93
2019-01-23T10:51:44.457Z,935.94
2019-01-23T10:52:44.584Z,935.93
2019-01-23T10:53:44.413Z,935.9
2019-01-23T10:54:44.391Z,935.93
2019-01-23T10:55:44.370Z,935.93
2019-01-23T10:56:44.354Z,935.88
2019-01-23T10:57:44.329Z,935.92
2019-01-23T10:58:44.308Z,935.93
2019-01-23T10:59:44.287Z,935.94
2019-01-23T11:00:44.264Z,935.97
2019-01-23T11:01:44.242Z,935.99
2019-01-23T11:02:44.222Z,935.94
2019-01-23T11:03:44.200Z,935.93
2019-01-23T11:04:44.180Z,935.96
2019-01-23T11:05:44.159Z,935.97
2019-01-23T11:06:44.145Z,935.91
2019-01-23T11:07:44.116Z,935.87
2019-01-23T11:08:44.096Z,935.91
2019-01-23T11:09:44.075Z,935.85
2019-01-23T11:10:44.054Z,935.88
2019-01-23T11:11:44.033Z,935.93
2019-01-23T11:12:44.011Z,935.9
2019-01-23T11:13:43.991Z,935.92
2019-01-23T11:14:43.970Z,935.9
2019-01-23T11:15:43.948Z,935.91
2019-01-23T11:16:43.928Z,935.88
2019-01-23T11:17:43.906Z,935.92
2019-01-23T11:18:43.886Z,935.9
2019-01-23T11:19:43.864Z,935.91
2019-01-23T11:20:43.843Z,935.89
2019-01-23T11:21:43.823Z,935.93
2019-01-23T11:22:43.801Z,935.93
2019-01-23T11:23:43.782Z,935.86
2019-01-23T11:24:43.759Z,935.99
2019-01-23T11:25:43.739Z,935.98
2019-01-23T11:26:43.718Z,935.96
2019-01-23T11:27:43.697Z,935.9
2019-01-23T11:28:43.676Z,935.87
2019-01-23T11:29:43.654Z,935.9
2019-01-23T11:30:43.633Z,935.87
2019-01-23T11:31:43.613Z,935.89
2019-01-23T11:32:43.597Z,935.91
2019-01-23T11:33:43.572Z,935.91
2019-01-23T11:34:43.550Z,935.9
2019-01-23T11:35:43.530Z,935.92
2019-01-23T11:36:43.509Z,935.91
2019-01-23T11:37:43.488Z,935.88
2019-01-23T11:38:43.468Z,935.86
2019-01-23T11:39:43.447Z,935.92
2019-01-23T11:40:43.425Z,935.88
2019-01-23T11:41:43.407Z,935.87
2019-01-23T11:42:43.384Z,935.84
2019-01-23T11:43:43.365Z,935.86
2019-01-23T11:44:43.344Z,935.85
2019-01-23T11:45:43.323Z,935.83
2019-01-23T11:46:43.304Z,935.83
2019-01-23T11:47:43.283Z,935.83
2019-01-23T11:48:43.261Z,935.83
2019-01-23T11:49:43.240Z,935.83
2019-01-23T11:50:43.221Z,935.83
2019-01-23T11:51:43.199Z,935.87
2019-01-23T11:52:43.177Z,935.82
2019-01-23T11:53:43.159Z,935.85
2019-01-23T11:54:43.137Z,935.85
2019-01-23T11:55:43.117Z,935.83
2019-01-23T11:56:43.097Z,935.85
2019-01-23T11:57:43.079Z,935.87
2019-01-23T11:58:43.058Z,935.81
2019-01-23T11:59:43.036Z,935.83
2019-01-23T12:00:43.019Z,935.87
2019-01-23T12:01:42.993Z,935.89
2019-01-23T12:02:42.971Z,935.83
2019-01-23T12:03:42.952Z,935.83
2019-01-23T12:04:42.931Z,935.78
2019-01-23T12:05:42.912Z,935.78
2019-01-23T12:06:42.890Z,935.81
2019-01-23T12:07:42.870Z,935.8
2019-01-23T12:08:42.849Z,935.82
2019-01-23T12:09:42.830Z,935.79
2019-01-23T12:10:42.809Z,935.74
2019-01-23T12:11:42.787Z,935.76
2019-01-23T12:12:42.769Z,935.78
2019-01-23T12:13:42.746Z,935.77
2019-01-23T12:14:42.727Z,935.77
2019-01-23T12:15:42.707Z,935.78
2019-01-23T12:16:42.687Z,935.77
2019-01-23T12:17:42.667Z,935.75
2019-01-23T12:18:42.644Z,935.75
2019-01-23T12:19:42.625Z,935.74
2019-01-23T12:20:42.606Z,935.74
2019-01-23T12:21:42.584Z,935.75
2019-01-23T12:22:42.573Z,935.75
2019-01-23T12:23:42.597Z,935.7
2019-01-23T12:24:42.522Z,935.68
2019-01-23T12:25:42.502Z,935.67
2019-01-23T12:26:42.481Z,935.64
2019-01-23T12:27:42.462Z,935.66
2019-01-23T12:28:42.442Z,935.69
2019-01-23T12:29:42.420Z,935.66
2019-01-23T12:30:42.399Z,935.66